sensor_id;sensor_type;location;lat;lon;timestamp;P1;durP1;ratioP1;P2;durP2;ratioP2
57111;SDS011;42992;49.084;19.300;2023-06-26T00:05:20;9.40;;;5.30;;
57111;SDS011;42992;49.084;19.300;2023-06-26T00:07:51;8.52;;;5.43;;
57111;SDS011;42992;49.084;19.300;2023-06-26T00:10:58;7.65;;;4.95;;
57111;SDS011;42992;49.084;19.300;2023-06-26T01:41:57;9.43;;;5.18;;
57111;SDS011;42992;49.084;19.300;2023-06-26T04:15:30;7.75;;;5.53;;
57111;SDS011;42992;49.084;19.300;2023-06-26T04:17:58;7.95;;;5.25;;
57111;SDS011;42992;49.084;19.300;2023-06-26T04:20:24;12.20;;;5.72;;
57111;SDS011;42992;49.084;19.300;2023-06-26T04:28:27;10.02;;;5.68;;
57111;SDS011;42992;49.084;19.300;2023-06-26T04:30:53;7.63;;;5.25;;
57111;SDS011;42992;49.084;19.300;2023-06-26T04:33:31;7.28;;;5.45;;
57111;SDS011;42992;49.084;19.300;2023-06-26T04:36:24;8.57;;;5.40;;
57111;SDS011;42992;49.084;19.300;2023-06-26T04:44:59;7.78;;;5.07;;
57111;SDS011;42992;49.084;19.300;2023-06-26T04:47:27;9.45;;;5.85;;
57111;SDS011;42992;49.084;19.300;2023-06-26T04:49:52;10.70;;;5.97;;
57111;SDS011;42992;49.084;19.300;2023-06-26T04:52:17;9.18;;;5.57;;
57111;SDS011;42992;49.084;19.300;2023-06-26T04:54:42;7.75;;;5.38;;
57111;SDS011;42992;49.084;19.300;2023-06-26T04:57:08;13.65;;;5.18;;
57111;SDS011;42992;49.084;19.300;2023-06-26T04:59:34;7.00;;;4.47;;
57111;SDS011;42992;49.084;19.300;2023-06-26T05:01:59;8.73;;;5.90;;
57111;SDS011;42992;49.084;19.300;2023-06-26T05:04:24;11.20;;;5.60;;
57111;SDS011;42992;49.084;19.300;2023-06-26T05:06:49;9.20;;;4.70;;
57111;SDS011;42992;49.084;19.300;2023-06-26T05:09:14;8.90;;;5.07;;
57111;SDS011;42992;49.084;19.300;2023-06-26T05:11:40;9.20;;;5.20;;
57111;SDS011;42992;49.084;19.300;2023-06-26T05:14:05;7.93;;;4.93;;
57111;SDS011;42992;49.084;19.300;2023-06-26T05:16:32;8.75;;;5.20;;
57111;SDS011;42992;49.084;19.300;2023-06-26T05:18:57;8.82;;;5.25;;
57111;SDS011;42992;49.084;19.300;2023-06-26T05:21:23;10.00;;;5.70;;
57111;SDS011;42992;49.084;19.300;2023-06-26T05:23:48;9.32;;;5.20;;
57111;SDS011;42992;49.084;19.300;2023-06-26T05:26:14;10.20;;;5.75;;
57111;SDS011;42992;49.084;19.300;2023-06-26T05:28:39;11.98;;;5.70;;
57111;SDS011;42992;49.084;19.300;2023-06-26T05:31:05;8.18;;;5.13;;
57111;SDS011;42992;49.084;19.300;2023-06-26T05:33:30;7.40;;;4.25;;
57111;SDS011;42992;49.084;19.300;2023-06-26T05:35:56;8.45;;;4.95;;
57111;SDS011;42992;49.084;19.300;2023-06-26T05:38:21;8.88;;;4.70;;
57111;SDS011;42992;49.084;19.300;2023-06-26T05:40:47;10.05;;;5.00;;
57111;SDS011;42992;49.084;19.300;2023-06-26T05:43:12;11.07;;;4.90;;
57111;SDS011;42992;49.084;19.300;2023-06-26T05:45:37;11.93;;;5.05;;
57111;SDS011;42992;49.084;19.300;2023-06-26T05:48:03;7.80;;;5.05;;
57111;SDS011;42992;49.084;19.300;2023-06-26T05:50:28;10.40;;;5.53;;
57111;SDS011;42992;49.084;19.300;2023-06-26T05:52:54;11.95;;;5.40;;
57111;SDS011;42992;49.084;19.300;2023-06-26T05:55:19;10.93;;;4.57;;
57111;SDS011;42992;49.084;19.300;2023-06-26T05:57:45;7.75;;;5.10;;
57111;SDS011;42992;49.084;19.300;2023-06-26T06:00:11;13.23;;;5.15;;
57111;SDS011;42992;49.084;19.300;2023-06-26T06:02:37;12.90;;;5.65;;
57111;SDS011;42992;49.084;19.300;2023-06-26T06:05:02;7.80;;;5.13;;
57111;SDS011;42992;49.084;19.300;2023-06-26T06:07:27;8.00;;;5.13;;
57111;SDS011;42992;49.084;19.300;2023-06-26T06:09:53;8.27;;;5.10;;
57111;SDS011;42992;49.084;19.300;2023-06-26T06:12:18;8.52;;;5.35;;
57111;SDS011;42992;49.084;19.300;2023-06-26T06:14:43;9.52;;;6.20;;
57111;SDS011;42992;49.084;19.300;2023-06-26T06:17:08;8.88;;;5.20;;
57111;SDS011;42992;49.084;19.300;2023-06-26T06:19:34;8.63;;;5.15;;
57111;SDS011;42992;49.084;19.300;2023-06-26T06:21:59;8.27;;;5.13;;
57111;SDS011;42992;49.084;19.300;2023-06-26T06:24:24;15.13;;;6.78;;
57111;SDS011;42992;49.084;19.300;2023-06-26T06:26:49;12.63;;;5.50;;
57111;SDS011;42992;49.084;19.300;2023-06-26T06:29:15;8.60;;;4.95;;
57111;SDS011;42992;49.084;19.300;2023-06-26T06:31:40;8.20;;;4.80;;
57111;SDS011;42992;49.084;19.300;2023-06-26T06:34:05;7.97;;;5.35;;
57111;SDS011;42992;49.084;19.300;2023-06-26T06:36:30;8.15;;;5.38;;
57111;SDS011;42992;49.084;19.300;2023-06-26T06:38:56;7.72;;;4.88;;
57111;SDS011;42992;49.084;19.300;2023-06-26T06:41:21;6.72;;;4.50;;
57111;SDS011;42992;49.084;19.300;2023-06-26T06:43:46;6.75;;;4.32;;
57111;SDS011;42992;49.084;19.300;2023-06-26T06:46:12;6.75;;;4.88;;
57111;SDS011;42992;49.084;19.300;2023-06-26T06:48:37;6.45;;;4.70;;
57111;SDS011;42992;49.084;19.300;2023-06-26T06:51:02;7.50;;;4.53;;
57111;SDS011;42992;49.084;19.300;2023-06-26T06:53:28;7.18;;;4.95;;
57111;SDS011;42992;49.084;19.300;2023-06-26T06:55:53;10.77;;;5.45;;
57111;SDS011;42992;49.084;19.300;2023-06-26T06:58:19;6.87;;;4.90;;
57111;SDS011;42992;49.084;19.300;2023-06-26T07:00:45;11.20;;;5.60;;
57111;SDS011;42992;49.084;19.300;2023-06-26T07:03:10;6.95;;;4.70;;
57111;SDS011;42992;49.084;19.300;2023-06-26T07:05:36;8.75;;;4.88;;
57111;SDS011;42992;49.084;19.300;2023-06-26T07:08:01;8.75;;;5.25;;
57111;SDS011;42992;49.084;19.300;2023-06-26T07:10:27;7.93;;;4.30;;
57111;SDS011;42992;49.084;19.300;2023-06-26T07:12:53;7.97;;;4.78;;
57111;SDS011;42992;49.084;19.300;2023-06-26T07:15:18;7.82;;;4.72;;
57111;SDS011;42992;49.084;19.300;2023-06-26T07:17:43;7.95;;;5.30;;
57111;SDS011;42992;49.084;19.300;2023-06-26T07:20:09;6.50;;;4.78;;
57111;SDS011;42992;49.084;19.300;2023-06-26T07:22:40;7.50;;;4.70;;
57111;SDS011;42992;49.084;19.300;2023-06-26T07:25:05;9.85;;;5.10;;
57111;SDS011;42992;49.084;19.300;2023-06-26T07:27:34;8.38;;;4.95;;
57111;SDS011;42992;49.084;19.300;2023-06-26T07:29:59;8.18;;;4.30;;
57111;SDS011;42992;49.084;19.300;2023-06-26T07:32:24;7.33;;;4.57;;
57111;SDS011;42992;49.084;19.300;2023-06-26T07:34:49;9.90;;;4.93;;
57111;SDS011;42992;49.084;19.300;2023-06-26T07:37:15;6.07;;;4.40;;
57111;SDS011;42992;49.084;19.300;2023-06-26T07:39:40;7.47;;;4.50;;
57111;SDS011;42992;49.084;19.300;2023-06-26T07:42:05;6.95;;;4.40;;
57111;SDS011;42992;49.084;19.300;2023-06-26T07:44:30;7.78;;;4.40;;
57111;SDS011;42992;49.084;19.300;2023-06-26T07:46:56;11.57;;;5.22;;
57111;SDS011;42992;49.084;19.300;2023-06-26T07:49:21;8.48;;;4.60;;
57111;SDS011;42992;49.084;19.300;2023-06-26T07:51:46;11.32;;;4.40;;
57111;SDS011;42992;49.084;19.300;2023-06-26T07:54:11;10.10;;;7.67;;
57111;SDS011;42992;49.084;19.300;2023-06-26T07:59:21;7.38;;;4.30;;
57111;SDS011;42992;49.084;19.300;2023-06-26T08:01:48;7.03;;;4.55;;
57111;SDS011;42992;49.084;19.300;2023-06-26T08:04:13;8.95;;;4.20;;
57111;SDS011;42992;49.084;19.300;2023-06-26T08:06:38;8.00;;;4.18;;
57111;SDS011;42992;49.084;19.300;2023-06-26T08:09:05;5.63;;;3.75;;
57111;SDS011;42992;49.084;19.300;2023-06-26T08:11:31;6.05;;;4.00;;
57111;SDS011;42992;49.084;19.300;2023-06-26T08:13:56;7.90;;;4.28;;
57111;SDS011;42992;49.084;19.300;2023-06-26T08:16:22;7.97;;;4.40;;
57111;SDS011;42992;49.084;19.300;2023-06-26T08:18:47;5.68;;;3.65;;
57111;SDS011;42992;49.084;19.300;2023-06-26T08:21:13;6.38;;;4.00;;
57111;SDS011;42992;49.084;19.300;2023-06-26T08:23:38;7.20;;;3.95;;
57111;SDS011;42992;49.084;19.300;2023-06-26T08:26:03;8.00;;;3.58;;
57111;SDS011;42992;49.084;19.300;2023-06-26T08:28:28;6.13;;;3.20;;
57111;SDS011;42992;49.084;19.300;2023-06-26T08:30:54;7.03;;;3.50;;
57111;SDS011;42992;49.084;19.300;2023-06-26T08:33:19;7.00;;;4.00;;
57111;SDS011;42992;49.084;19.300;2023-06-26T08:35:44;8.25;;;4.03;;
57111;SDS011;42992;49.084;19.300;2023-06-26T08:38:10;4.40;;;3.00;;
57111;SDS011;42992;49.084;19.300;2023-06-26T08:40:35;5.40;;;3.53;;
57111;SDS011;42992;49.084;19.300;2023-06-26T08:43:01;5.90;;;3.63;;
57111;SDS011;42992;49.084;19.300;2023-06-26T08:45:28;5.07;;;3.35;;
57111;SDS011;42992;49.084;19.300;2023-06-26T08:47:55;6.47;;;3.50;;
57111;SDS011;42992;49.084;19.300;2023-06-26T08:50:23;5.32;;;3.50;;
57111;SDS011;42992;49.084;19.300;2023-06-26T08:52:53;5.50;;;3.40;;
57111;SDS011;42992;49.084;19.300;2023-06-26T08:55:19;5.25;;;3.33;;
57111;SDS011;42992;49.084;19.300;2023-06-26T08:57:46;5.47;;;3.60;;
57111;SDS011;42992;49.084;19.300;2023-06-26T09:00:12;5.80;;;3.03;;
57111;SDS011;42992;49.084;19.300;2023-06-26T09:02:40;5.30;;;3.80;;
57111;SDS011;42992;49.084;19.300;2023-06-26T09:05:05;5.93;;;3.20;;
57111;SDS011;42992;49.084;19.300;2023-06-26T09:07:31;6.90;;;3.58;;
57111;SDS011;42992;49.084;19.300;2023-06-26T09:09:56;6.38;;;3.50;;
57111;SDS011;42992;49.084;19.300;2023-06-26T09:12:21;4.95;;;3.13;;
57111;SDS011;42992;49.084;19.300;2023-06-26T09:14:47;4.80;;;3.28;;
57111;SDS011;42992;49.084;19.300;2023-06-26T09:17:13;4.65;;;3.03;;
57111;SDS011;42992;49.084;19.300;2023-06-26T09:19:38;4.97;;;3.42;;
57111;SDS011;42992;49.084;19.300;2023-06-26T09:22:03;6.20;;;3.58;;
57111;SDS011;42992;49.084;19.300;2023-06-26T09:24:30;5.32;;;2.92;;
57111;SDS011;42992;49.084;19.300;2023-06-26T09:26:55;4.72;;;3.17;;
57111;SDS011;42992;49.084;19.300;2023-06-26T09:29:20;4.80;;;3.28;;
57111;SDS011;42992;49.084;19.300;2023-06-26T09:31:46;4.85;;;3.33;;
57111;SDS011;42992;49.084;19.300;2023-06-26T09:34:11;6.50;;;3.65;;
57111;SDS011;42992;49.084;19.300;2023-06-26T09:36:36;4.77;;;3.23;;
57111;SDS011;42992;49.084;19.300;2023-06-26T09:39:02;6.43;;;3.85;;
57111;SDS011;42992;49.084;19.300;2023-06-26T09:41:29;5.18;;;3.53;;
57111;SDS011;42992;49.084;19.300;2023-06-26T09:43:55;5.88;;;3.70;;
57111;SDS011;42992;49.084;19.300;2023-06-26T09:46:25;3.95;;;2.88;;
57111;SDS011;42992;49.084;19.300;2023-06-26T09:49:24;5.40;;;3.55;;
57111;SDS011;42992;49.084;19.300;2023-06-26T09:51:43;5.38;;;3.30;;
57111;SDS011;42992;49.084;19.300;2023-06-26T09:54:08;5.47;;;3.63;;
57111;SDS011;42992;49.084;19.300;2023-06-26T09:56:34;5.63;;;3.92;;
57111;SDS011;42992;49.084;19.300;2023-06-26T09:59:00;5.80;;;3.58;;
57111;SDS011;42992;49.084;19.300;2023-06-26T10:01:28;6.50;;;3.97;;
57111;SDS011;42992;49.084;19.300;2023-06-26T10:03:54;5.72;;;3.90;;
57111;SDS011;42992;49.084;19.300;2023-06-26T10:06:24;4.90;;;3.47;;
57111;SDS011;42992;49.084;19.300;2023-06-26T10:08:51;4.47;;;3.30;;
57111;SDS011;42992;49.084;19.300;2023-06-26T10:11:19;7.20;;;3.38;;
57111;SDS011;42992;49.084;19.300;2023-06-26T10:13:47;6.78;;;3.17;;
57111;SDS011;42992;49.084;19.300;2023-06-26T10:16:13;6.50;;;3.30;;
57111;SDS011;42992;49.084;19.300;2023-06-26T10:18:40;6.38;;;3.40;;
57111;SDS011;42992;49.084;19.300;2023-06-26T10:21:07;5.18;;;3.40;;
57111;SDS011;42992;49.084;19.300;2023-06-26T10:23:32;6.05;;;3.40;;
57111;SDS011;42992;49.084;19.300;2023-06-26T10:26:00;5.78;;;3.85;;
57111;SDS011;42992;49.084;19.300;2023-06-26T10:28:25;4.97;;;3.30;;
57111;SDS011;42992;49.084;19.300;2023-06-26T10:30:51;5.80;;;3.45;;
57111;SDS011;42992;49.084;19.300;2023-06-26T10:33:17;5.15;;;3.78;;
57111;SDS011;42992;49.084;19.300;2023-06-26T10:35:43;4.70;;;3.53;;
57111;SDS011;42992;49.084;19.300;2023-06-26T10:38:08;6.13;;;3.53;;
57111;SDS011;42992;49.084;19.300;2023-06-26T10:40:44;5.30;;;3.35;;
57111;SDS011;42992;49.084;19.300;2023-06-26T10:43:14;6.50;;;3.72;;
57111;SDS011;42992;49.084;19.300;2023-06-26T10:45:46;5.80;;;3.55;;
57111;SDS011;42992;49.084;19.300;2023-06-26T10:48:15;8.48;;;4.00;;
57111;SDS011;42992;49.084;19.300;2023-06-26T10:50:40;6.20;;;3.80;;
57111;SDS011;42992;49.084;19.300;2023-06-26T10:55:34;6.63;;;3.47;;
57111;SDS011;42992;49.084;19.300;2023-06-26T10:58:00;6.25;;;3.90;;
57111;SDS011;42992;49.084;19.300;2023-06-26T11:00:26;5.53;;;3.65;;
57111;SDS011;42992;49.084;19.300;2023-06-26T11:02:52;5.32;;;3.38;;
57111;SDS011;42992;49.084;19.300;2023-06-26T11:05:28;6.25;;;4.07;;
57111;SDS011;42992;49.084;19.300;2023-06-26T11:10:29;7.18;;;3.72;;
57111;SDS011;42992;49.084;19.300;2023-06-26T11:12:54;5.85;;;3.33;;
57111;SDS011;42992;49.084;19.300;2023-06-26T11:15:19;6.82;;;3.50;;
57111;SDS011;42992;49.084;19.300;2023-06-26T11:17:44;5.85;;;3.75;;
57111;SDS011;42992;49.084;19.300;2023-06-26T11:20:11;5.38;;;3.42;;
57111;SDS011;42992;49.084;19.300;2023-06-26T11:22:37;8.43;;;3.55;;
57111;SDS011;42992;49.084;19.300;2023-06-26T11:25:03;6.60;;;3.58;;
57111;SDS011;42992;49.084;19.300;2023-06-26T11:30:03;5.32;;;3.35;;
57111;SDS011;42992;49.084;19.300;2023-06-26T11:32:29;5.15;;;3.35;;
57111;SDS011;42992;49.084;19.300;2023-06-26T11:34:54;5.32;;;3.60;;
57111;SDS011;42992;49.084;19.300;2023-06-26T11:37:20;4.93;;;3.33;;
57111;SDS011;42992;49.084;19.300;2023-06-26T11:39:46;6.22;;;3.88;;
57111;SDS011;42992;49.084;19.300;2023-06-26T11:42:11;5.35;;;3.45;;
57111;SDS011;42992;49.084;19.300;2023-06-26T11:44:40;6.65;;;3.58;;
57111;SDS011;42992;49.084;19.300;2023-06-26T11:47:06;6.25;;;3.53;;
57111;SDS011;42992;49.084;19.300;2023-06-26T11:49:32;5.85;;;3.75;;
57111;SDS011;42992;49.084;19.300;2023-06-26T11:51:57;6.13;;;3.70;;
57111;SDS011;42992;49.084;19.300;2023-06-26T11:54:23;7.95;;;3.25;;
57111;SDS011;42992;49.084;19.300;2023-06-26T11:56:55;5.72;;;3.78;;
57111;SDS011;42992;49.084;19.300;2023-06-26T11:59:23;6.13;;;3.67;;
57111;SDS011;42992;49.084;19.300;2023-06-26T12:01:50;5.10;;;3.22;;
57111;SDS011;42992;49.084;19.300;2023-06-26T12:04:17;6.72;;;3.78;;
57111;SDS011;42992;49.084;19.300;2023-06-26T12:06:45;7.13;;;3.97;;
57111;SDS011;42992;49.084;19.300;2023-06-26T12:09:11;6.03;;;3.83;;
57111;SDS011;42992;49.084;19.300;2023-06-26T12:11:38;7.20;;;4.00;;
57111;SDS011;42992;49.084;19.300;2023-06-26T12:14:05;6.63;;;3.78;;
57111;SDS011;42992;49.084;19.300;2023-06-26T12:16:30;5.53;;;3.83;;
57111;SDS011;42992;49.084;19.300;2023-06-26T12:18:59;5.40;;;4.20;;
57111;SDS011;42992;49.084;19.300;2023-06-26T12:21:44;10.18;;;4.60;;
57111;SDS011;42992;49.084;19.300;2023-06-26T12:24:12;5.93;;;4.10;;
57111;SDS011;42992;49.084;19.300;2023-06-26T12:26:38;6.05;;;4.20;;
57111;SDS011;42992;49.084;19.300;2023-06-26T12:29:07;7.15;;;3.78;;
57111;SDS011;42992;49.084;19.300;2023-06-26T12:31:33;6.72;;;3.67;;
57111;SDS011;42992;49.084;19.300;2023-06-26T12:33:58;6.40;;;3.80;;
57111;SDS011;42992;49.084;19.300;2023-06-26T12:36:23;6.97;;;3.72;;
57111;SDS011;42992;49.084;19.300;2023-06-26T12:38:49;5.25;;;3.80;;
57111;SDS011;42992;49.084;19.300;2023-06-26T12:41:14;7.13;;;3.60;;
57111;SDS011;42992;49.084;19.300;2023-06-26T12:43:40;5.07;;;3.55;;
57111;SDS011;42992;49.084;19.300;2023-06-26T12:46:05;6.32;;;4.00;;
57111;SDS011;42992;49.084;19.300;2023-06-26T12:51:12;5.60;;;3.78;;
57111;SDS011;42992;49.084;19.300;2023-06-26T12:53:37;6.47;;;3.65;;
57111;SDS011;42992;49.084;19.300;2023-06-26T12:56:04;7.25;;;3.97;;
57111;SDS011;42992;49.084;19.300;2023-06-26T12:58:30;5.47;;;3.97;;
57111;SDS011;42992;49.084;19.300;2023-06-26T13:00:55;6.13;;;4.20;;
57111;SDS011;42992;49.084;19.300;2023-06-26T13:03:22;5.15;;;3.83;;
57111;SDS011;42992;49.084;19.300;2023-06-26T13:05:47;6.15;;;3.80;;
57111;SDS011;42992;49.084;19.300;2023-06-26T13:08:13;11.63;;;8.90;;
57111;SDS011;42992;49.084;19.300;2023-06-26T13:10:38;8.60;;;4.00;;
57111;SDS011;42992;49.084;19.300;2023-06-26T13:13:04;6.05;;;4.10;;
57111;SDS011;42992;49.084;19.300;2023-06-26T13:15:30;6.30;;;3.80;;
57111;SDS011;42992;49.084;19.300;2023-06-26T13:17:55;5.57;;;3.37;;
57111;SDS011;42992;49.084;19.300;2023-06-26T13:20:20;5.68;;;3.85;;
57111;SDS011;42992;49.084;19.300;2023-06-26T13:22:45;7.80;;;3.70;;
57111;SDS011;42992;49.084;19.300;2023-06-26T13:25:11;6.25;;;3.92;;
57111;SDS011;42992;49.084;19.300;2023-06-26T13:27:36;5.53;;;3.55;;
57111;SDS011;42992;49.084;19.300;2023-06-26T13:30:02;7.10;;;4.00;;
57111;SDS011;42992;49.084;19.300;2023-06-26T13:32:27;5.80;;;4.00;;
57111;SDS011;42992;49.084;19.300;2023-06-26T13:34:53;5.63;;;3.55;;
57111;SDS011;42992;49.084;19.300;2023-06-26T13:37:19;8.57;;;3.75;;
57111;SDS011;42992;49.084;19.300;2023-06-26T13:39:44;4.88;;;3.30;;
57111;SDS011;42992;49.084;19.300;2023-06-26T13:42:14;6.55;;;3.80;;
57111;SDS011;42992;49.084;19.300;2023-06-26T13:44:39;5.30;;;3.85;;
57111;SDS011;42992;49.084;19.300;2023-06-26T13:47:05;5.20;;;3.83;;
57111;SDS011;42992;49.084;19.300;2023-06-26T13:49:30;5.85;;;3.55;;
57111;SDS011;42992;49.084;19.300;2023-06-26T13:51:55;5.45;;;3.88;;
57111;SDS011;42992;49.084;19.300;2023-06-26T13:54:21;5.93;;;4.00;;
57111;SDS011;42992;49.084;19.300;2023-06-26T13:56:46;6.83;;;3.63;;
57111;SDS011;42992;49.084;19.300;2023-06-26T13:59:11;4.68;;;3.40;;
57111;SDS011;42992;49.084;19.300;2023-06-26T14:01:37;4.80;;;3.53;;
57111;SDS011;42992;49.084;19.300;2023-06-26T14:04:03;5.00;;;3.60;;
57111;SDS011;42992;49.084;19.300;2023-06-26T14:06:28;5.15;;;3.88;;
57111;SDS011;42992;49.084;19.300;2023-06-26T14:08:55;6.38;;;3.67;;
57111;SDS011;42992;49.084;19.300;2023-06-26T14:11:20;4.97;;;3.55;;
57111;SDS011;42992;49.084;19.300;2023-06-26T14:13:47;4.85;;;3.75;;
57111;SDS011;42992;49.084;19.300;2023-06-26T14:16:12;7.28;;;3.70;;
57111;SDS011;42992;49.084;19.300;2023-06-26T14:18:38;5.95;;;3.70;;
57111;SDS011;42992;49.084;19.300;2023-06-26T14:21:03;4.93;;;4.03;;
57111;SDS011;42992;49.084;19.300;2023-06-26T14:23:29;6.68;;;4.03;;
57111;SDS011;42992;49.084;19.300;2023-06-26T14:25:54;6.65;;;4.00;;
57111;SDS011;42992;49.084;19.300;2023-06-26T14:28:19;5.37;;;3.50;;
57111;SDS011;42992;49.084;19.300;2023-06-26T14:30:44;4.67;;;3.87;;
57111;SDS011;42992;49.084;19.300;2023-06-26T14:33:10;5.57;;;3.60;;
57111;SDS011;42992;49.084;19.300;2023-06-26T14:35:35;5.10;;;3.70;;
57111;SDS011;42992;49.084;19.300;2023-06-26T14:38:00;5.20;;;3.78;;
57111;SDS011;42992;49.084;19.300;2023-06-26T14:40:26;5.65;;;3.70;;
57111;SDS011;42992;49.084;19.300;2023-06-26T14:42:51;4.82;;;3.67;;
57111;SDS011;42992;49.084;19.300;2023-06-26T14:45:18;5.38;;;3.67;;
57111;SDS011;42992;49.084;19.300;2023-06-26T14:47:43;5.00;;;3.80;;
57111;SDS011;42992;49.084;19.300;2023-06-26T14:50:08;5.00;;;4.07;;
57111;SDS011;42992;49.084;19.300;2023-06-26T14:52:34;6.22;;;4.20;;
57111;SDS011;42992;49.084;19.300;2023-06-26T14:54:59;5.18;;;3.55;;
57111;SDS011;42992;49.084;19.300;2023-06-26T14:57:24;5.25;;;3.47;;
57111;SDS011;42992;49.084;19.300;2023-06-26T14:59:50;5.37;;;3.50;;
57111;SDS011;42992;49.084;19.300;2023-06-26T15:02:15;4.90;;;3.53;;
57111;SDS011;42992;49.084;19.300;2023-06-26T15:04:40;4.90;;;3.83;;
57111;SDS011;42992;49.084;19.300;2023-06-26T15:07:05;5.70;;;3.63;;
57111;SDS011;42992;49.084;19.300;2023-06-26T15:09:31;6.40;;;3.60;;
57111;SDS011;42992;49.084;19.300;2023-06-26T15:11:57;6.88;;;4.63;;
57111;SDS011;42992;49.084;19.300;2023-06-26T15:14:22;6.55;;;3.85;;
57111;SDS011;42992;49.084;19.300;2023-06-26T15:16:47;5.93;;;4.03;;
57111;SDS011;42992;49.084;19.300;2023-06-26T15:19:12;7.18;;;4.00;;
57111;SDS011;42992;49.084;19.300;2023-06-26T15:21:38;8.20;;;3.77;;
57111;SDS011;42992;49.084;19.300;2023-06-26T15:24:05;4.67;;;3.57;;
57111;SDS011;42992;49.084;19.300;2023-06-26T15:26:31;4.97;;;3.47;;
57111;SDS011;42992;49.084;19.300;2023-06-26T15:28:56;4.65;;;3.65;;
57111;SDS011;42992;49.084;19.300;2023-06-26T15:31:21;6.23;;;3.60;;
57111;SDS011;42992;49.084;19.300;2023-06-26T15:33:46;6.10;;;3.70;;
57111;SDS011;42992;49.084;19.300;2023-06-26T15:36:12;6.43;;;3.77;;
57111;SDS011;42992;49.084;19.300;2023-06-26T15:38:37;5.30;;;3.78;;
57111;SDS011;42992;49.084;19.300;2023-06-26T15:41:02;5.97;;;3.47;;
57111;SDS011;42992;49.084;19.300;2023-06-26T15:43:28;5.80;;;4.30;;
57111;SDS011;42992;49.084;19.300;2023-06-26T15:45:53;5.53;;;3.58;;
57111;SDS011;42992;49.084;19.300;2023-06-26T15:48:18;5.07;;;3.67;;
57111;SDS011;42992;49.084;19.300;2023-06-26T15:50:43;4.80;;;3.63;;
57111;SDS011;42992;49.084;19.300;2023-06-26T15:53:08;5.30;;;3.80;;
57111;SDS011;42992;49.084;19.300;2023-06-26T15:55:34;6.43;;;3.30;;
57111;SDS011;42992;49.084;19.300;2023-06-26T15:57:59;5.33;;;3.80;;
57111;SDS011;42992;49.084;19.300;2023-06-26T16:00:25;4.88;;;3.80;;
57111;SDS011;42992;49.084;19.300;2023-06-26T16:02:50;4.78;;;3.70;;
57111;SDS011;42992;49.084;19.300;2023-06-26T16:05:15;8.30;;;3.60;;
57111;SDS011;42992;49.084;19.300;2023-06-26T16:07:41;4.60;;;3.50;;
57111;SDS011;42992;49.084;19.300;2023-06-26T16:10:06;4.57;;;3.67;;
57111;SDS011;42992;49.084;19.300;2023-06-26T16:12:32;4.65;;;3.55;;
57111;SDS011;42992;49.084;19.300;2023-06-26T16:14:57;6.50;;;4.03;;
57111;SDS011;42992;49.084;19.300;2023-06-26T16:17:22;5.47;;;3.67;;
57111;SDS011;42992;49.084;19.300;2023-06-26T16:19:48;5.10;;;3.37;;
57111;SDS011;42992;49.084;19.300;2023-06-26T16:22:13;5.00;;;3.70;;
57111;SDS011;42992;49.084;19.300;2023-06-26T16:24:38;4.50;;;3.33;;
57111;SDS011;42992;49.084;19.300;2023-06-26T16:27:03;6.60;;;3.53;;
57111;SDS011;42992;49.084;19.300;2023-06-26T16:29:29;6.63;;;3.72;;
57111;SDS011;42992;49.084;19.300;2023-06-26T16:31:54;5.97;;;3.42;;
57111;SDS011;42992;49.084;19.300;2023-06-26T16:34:20;4.68;;;3.50;;
57111;SDS011;42992;49.084;19.300;2023-06-26T16:36:45;5.10;;;3.60;;
57111;SDS011;42992;49.084;19.300;2023-06-26T16:39:13;5.28;;;3.17;;
57111;SDS011;42992;49.084;19.300;2023-06-26T16:41:44;4.88;;;3.40;;
57111;SDS011;42992;49.084;19.300;2023-06-26T16:44:09;5.80;;;3.53;;
57111;SDS011;42992;49.084;19.300;2023-06-26T16:46:34;6.20;;;3.60;;
57111;SDS011;42992;49.084;19.300;2023-06-26T16:49:00;4.97;;;3.40;;
57111;SDS011;42992;49.084;19.300;2023-06-26T16:51:25;4.78;;;3.25;;
57111;SDS011;42992;49.084;19.300;2023-06-26T16:53:50;5.88;;;3.60;;
57111;SDS011;42992;49.084;19.300;2023-06-26T16:56:15;4.80;;;3.53;;
57111;SDS011;42992;49.084;19.300;2023-06-26T16:58:41;6.20;;;3.45;;
57111;SDS011;42992;49.084;19.300;2023-06-26T17:01:06;7.13;;;3.30;;
57111;SDS011;42992;49.084;19.300;2023-06-26T17:03:31;4.77;;;3.50;;
57111;SDS011;42992;49.084;19.300;2023-06-26T17:05:56;4.57;;;3.17;;
57111;SDS011;42992;49.084;19.300;2023-06-26T17:08:22;4.72;;;3.25;;
57111;SDS011;42992;49.084;19.300;2023-06-26T17:10:47;5.10;;;3.50;;
57111;SDS011;42992;49.084;19.300;2023-06-26T17:13:12;6.00;;;3.72;;
57111;SDS011;42992;49.084;19.300;2023-06-26T17:15:38;6.22;;;3.33;;
57111;SDS011;42992;49.084;19.300;2023-06-26T17:18:04;5.90;;;3.58;;
57111;SDS011;42992;49.084;19.300;2023-06-26T17:20:30;6.85;;;3.55;;
57111;SDS011;42992;49.084;19.300;2023-06-26T17:22:56;6.38;;;4.00;;
57111;SDS011;42992;49.084;19.300;2023-06-26T17:25:23;7.85;;;3.88;;
57111;SDS011;42992;49.084;19.300;2023-06-26T17:27:48;6.82;;;3.78;;
57111;SDS011;42992;49.084;19.300;2023-06-26T17:30:13;7.90;;;3.87;;
57111;SDS011;42992;49.084;19.300;2023-06-26T17:32:39;6.07;;;3.80;;
57111;SDS011;42992;49.084;19.300;2023-06-26T17:35:04;6.00;;;3.63;;
57111;SDS011;42992;49.084;19.300;2023-06-26T17:37:32;5.57;;;3.58;;
57111;SDS011;42992;49.084;19.300;2023-06-26T17:39:57;8.20;;;3.73;;
57111;SDS011;42992;49.084;19.300;2023-06-26T17:42:23;4.95;;;3.47;;
57111;SDS011;42992;49.084;19.300;2023-06-26T17:44:48;6.13;;;3.75;;
57111;SDS011;42992;49.084;19.300;2023-06-26T17:47:13;7.97;;;4.45;;
57111;SDS011;42992;49.084;19.300;2023-06-26T17:49:39;5.82;;;3.70;;
57111;SDS011;42992;49.084;19.300;2023-06-26T17:52:04;6.05;;;3.60;;
57111;SDS011;42992;49.084;19.300;2023-06-26T17:54:30;5.15;;;3.78;;
57111;SDS011;42992;49.084;19.300;2023-06-26T17:56:55;6.63;;;3.90;;
57111;SDS011;42992;49.084;19.300;2023-06-26T17:59:20;7.45;;;4.20;;
57111;SDS011;42992;49.084;19.300;2023-06-26T18:01:46;6.85;;;4.18;;
57111;SDS011;42992;49.084;19.300;2023-06-26T18:04:11;6.72;;;4.05;;
57111;SDS011;42992;49.084;19.300;2023-06-26T18:06:36;7.25;;;4.00;;
57111;SDS011;42992;49.084;19.300;2023-06-26T18:09:02;6.90;;;3.50;;
57111;SDS011;42992;49.084;19.300;2023-06-26T18:11:29;6.72;;;3.92;;
57111;SDS011;42992;49.084;19.300;2023-06-26T18:13:55;7.70;;;4.05;;
57111;SDS011;42992;49.084;19.300;2023-06-26T18:16:20;6.18;;;4.00;;
57111;SDS011;42992;49.084;19.300;2023-06-26T18:18:45;6.77;;;3.67;;
57111;SDS011;42992;49.084;19.300;2023-06-26T18:21:11;6.20;;;4.20;;
57111;SDS011;42992;49.084;19.300;2023-06-26T18:23:39;6.75;;;3.92;;
57111;SDS011;42992;49.084;19.300;2023-06-26T18:26:04;6.13;;;4.32;;
57111;SDS011;42992;49.084;19.300;2023-06-26T18:28:29;6.72;;;4.00;;
57111;SDS011;42992;49.084;19.300;2023-06-26T18:30:55;5.55;;;3.83;;
57111;SDS011;42992;49.084;19.300;2023-06-26T18:33:20;6.30;;;4.10;;
57111;SDS011;42992;49.084;19.300;2023-06-26T18:35:46;8.73;;;4.28;;
57111;SDS011;42992;49.084;19.300;2023-06-26T18:38:11;9.65;;;4.13;;
57111;SDS011;42992;49.084;19.300;2023-06-26T18:40:37;5.40;;;3.45;;
57111;SDS011;42992;49.084;19.300;2023-06-26T18:43:02;5.25;;;3.75;;
57111;SDS011;42992;49.084;19.300;2023-06-26T18:45:28;6.72;;;3.70;;
57111;SDS011;42992;49.084;19.300;2023-06-26T18:47:53;6.53;;;3.83;;
57111;SDS011;42992;49.084;19.300;2023-06-26T18:50:18;7.47;;;4.20;;
57111;SDS011;42992;49.084;19.300;2023-06-26T18:52:47;8.57;;;4.15;;
57111;SDS011;42992;49.084;19.300;2023-06-26T18:55:12;6.50;;;4.50;;